createdAt,value
2018-08-18T00:04:18.767Z,99.40
2018-08-18T00:09:13.852Z,99.90
2018-08-18T00:14:10.297Z,99.30
2018-08-18T00:19:07.104Z,99.30
2018-08-18T00:24:08.014Z,99.90
2018-08-18T00:29:03.845Z,99.50
2018-08-18T00:33:58.250Z,99.50
2018-08-18T00:38:52.310Z,99.90
2018-08-18T00:43:55.373Z,99.90
2018-08-18T00:48:57.941Z,99.90
2018-08-18T00:53:53.265Z,99.90
2018-08-18T00:58:54.378Z,99.90
2018-08-18T01:03:55.360Z,99.90
2018-08-18T01:08:54.214Z,99.90
2018-08-18T01:13:48.261Z,99.90
2018-08-18T01:18:42.380Z,99.90
2018-08-18T01:23:36.959Z,99.90
2018-08-18T01:28:31.156Z,99.90
2018-08-18T01:33:26.291Z,99.90
2018-08-18T01:38:20.309Z,99.90
2018-08-18T01:43:21.985Z,99.90
2018-08-18T01:48:16.085Z,99.90
2018-08-18T01:53:09.995Z,99.90
2018-08-18T01:58:20.047Z,99.90
2018-08-18T02:03:14.776Z,99.90
2018-08-18T02:08:16.481Z,99.90
2018-08-18T02:13:18.059Z,99.90
2018-08-18T02:18:18.451Z,99.90
2018-08-18T02:23:13.935Z,99.90
2018-08-18T02:28:08.723Z,99.90
2018-08-18T02:33:03.571Z,99.90
2018-08-18T02:37:58.952Z,99.90
2018-08-18T02:42:53.520Z,99.90
2018-08-18T02:47:48.440Z,99.90
2018-08-18T02:52:43.011Z,99.90
2018-08-18T02:57:39.425Z,99.90
2018-08-18T03:02:33.349Z,99.90
2018-08-18T03:07:46.771Z,99.90
2018-08-18T03:13:03.829Z,99.90
2018-08-18T03:17:58.972Z,99.90
2018-08-18T03:22:53.390Z,99.90
2018-08-18T03:27:47.420Z,99.90
2018-08-18T03:32:42.080Z,99.90
2018-08-18T03:37:36.405Z,99.90
2018-08-18T03:42:46.560Z,99.90
2018-08-18T03:47:40.613Z,99.90
2018-08-18T03:52:35.522Z,99.90
2018-08-18T03:57:48.081Z,99.90
2018-08-18T04:02:41.816Z,99.90
2018-08-18T04:07:39.798Z,99.90
2018-08-18T04:12:41.049Z,99.90
2018-08-18T04:17:34.779Z,99.90
2018-08-18T04:22:29.010Z,99.90
2018-08-18T04:27:41.379Z,99.90
2018-08-18T04:32:48.172Z,99.90
2018-08-18T04:37:43.346Z,99.90
2018-08-18T04:42:38.271Z,99.90
2018-08-18T04:47:32.562Z,99.90
2018-08-18T04:52:27.771Z,99.90
2018-08-18T04:57:22.937Z,99.90
2018-08-18T05:02:17.587Z,99.90
2018-08-18T05:07:11.691Z,99.90
2018-08-18T05:12:08.383Z,99.90
2018-08-18T05:17:02.257Z,99.90
2018-08-18T05:21:57.694Z,99.90
2018-08-18T05:26:53.354Z,99.90
2018-08-18T05:31:47.426Z,99.90
2018-08-18T05:36:42.384Z,99.40
2018-08-18T05:41:37.827Z,99.10
2018-08-18T05:46:32.167Z,98.60
2018-08-18T05:51:26.912Z,97.90
2018-08-18T05:56:21.063Z,96.00
2018-08-18T06:01:24.374Z,96.00
2018-08-18T06:06:19.758Z,96.30
2018-08-18T06:11:14.111Z,96.60
2018-08-18T06:16:10.112Z,96.30
2018-08-18T06:21:12.595Z,97.20
2018-08-18T06:26:07.753Z,97.30
2018-08-18T06:31:04.288Z,96.90
2018-08-18T06:36:00.507Z,97.40
2018-08-18T06:40:57.870Z,96.50
2018-08-18T06:45:51.838Z,96.60
2018-08-18T06:50:45.644Z,96.50
2018-08-18T06:55:39.893Z,96.20
2018-08-18T07:00:34.083Z,97.00
2018-08-18T07:05:28.538Z,97.50
2018-08-18T07:10:38.792Z,97.30
2018-08-18T07:15:33.910Z,95.90
2018-08-18T07:20:28.499Z,96.80
2018-08-18T07:25:22.599Z,97.20
2018-08-18T07:30:16.810Z,96.20
2018-08-18T07:35:11.464Z,95.30
2018-08-18T07:40:07.461Z,94.10
2018-08-18T07:45:02.728Z,92.50
2018-08-18T07:49:57.220Z,91.30
2018-08-18T07:54:51.493Z,90.00
2018-08-18T07:59:45.430Z,88.60
2018-08-18T08:04:41.382Z,84.60
2018-08-18T08:09:35.576Z,80.70
2018-08-18T08:14:29.520Z,79.80
2018-08-18T08:19:23.517Z,71.70
2018-08-18T08:24:19.073Z,72.50
2018-08-18T08:29:22.035Z,74.50
2018-08-18T08:34:24.695Z,74.90
2018-08-18T08:39:41.351Z,74.10
2018-08-18T08:44:58.765Z,70.80
2018-08-18T08:50:08.676Z,63.50
2018-08-18T08:55:04.544Z,64.10
2018-08-18T08:59:59.029Z,66.10
2018-08-18T09:04:53.140Z,70.80
2018-08-18T09:09:47.370Z,74.20
2018-08-18T09:14:42.040Z,73.30
2018-08-18T09:19:37.225Z,72.80
2018-08-18T09:24:32.788Z,62.60
2018-08-18T09:29:32.643Z,52.30
2018-08-18T09:34:28.575Z,50.80
2018-08-18T09:39:28.360Z,55.30
2018-08-18T09:44:27.366Z,56.90
2018-08-18T09:49:21.492Z,60.50
2018-08-18T09:54:16.077Z,61.20
2018-08-18T09:59:11.093Z,57.90
2018-08-18T10:04:07.418Z,52.70
2018-08-18T10:09:03.215Z,53.10
2018-08-18T10:14:04.907Z,53.70
2018-08-18T10:19:00.199Z,60.50
2018-08-18T10:23:54.448Z,62.10
2018-08-18T10:28:48.402Z,58.60
2018-08-18T10:33:43.007Z,48.30
2018-08-18T10:38:37.698Z,39.20
2018-08-18T10:43:32.519Z,35.80
2018-08-18T10:48:27.591Z,38.90
2018-08-18T10:53:21.673Z,39.80
2018-08-18T10:58:28.878Z,37.80
2018-08-18T11:03:23.881Z,37.20
2018-08-18T11:08:18.056Z,35.40
2018-08-18T11:13:12.039Z,36.80
2018-08-18T11:18:08.696Z,37.70
2018-08-18T11:23:04.982Z,41.40
2018-08-18T11:27:59.890Z,46.10
2018-08-18T11:32:54.518Z,48.40
2018-08-18T11:37:55.398Z,49.20
2018-08-18T11:42:50.147Z,49.70
2018-08-18T11:47:48.772Z,53.30
2018-08-18T11:52:47.188Z,53.80
2018-08-18T11:57:41.648Z,55.30
2018-08-18T12:02:37.110Z,52.30
2018-08-18T12:07:32.600Z,52.50
2018-08-18T12:12:32.809Z,52.80
2018-08-18T12:17:27.169Z,54.50
2018-08-18T12:22:23.203Z,53.30
2018-08-18T12:27:17.361Z,54.20
2018-08-18T12:32:21.412Z,55.20
2018-08-18T12:37:15.682Z,55.50
2018-08-18T12:42:11.975Z,55.30
2018-08-18T12:47:07.673Z,54.60
2018-08-18T12:52:04.922Z,54.90
2018-08-18T12:56:58.921Z,55.00
2018-08-18T13:01:54.405Z,56.40
2018-08-18T13:07:07.364Z,56.30
2018-08-18T13:12:16.807Z,57.00
2018-08-18T13:17:11.914Z,57.20
2018-08-18T13:22:16.016Z,56.40
2018-08-18T13:27:10.401Z,56.50
2018-08-18T13:32:05.424Z,57.10
2018-08-18T13:37:00.977Z,57.80
2018-08-18T13:41:54.853Z,56.10
2018-08-18T13:46:52.013Z,56.70
2018-08-18T13:51:46.573Z,59.60
2018-08-18T13:56:40.792Z,58.50
2018-08-18T14:01:37.505Z,57.90
2018-08-18T14:06:45.354Z,56.90
2018-08-18T14:11:48.531Z,56.90
2018-08-18T14:16:49.561Z,55.90
2018-08-18T14:21:44.213Z,56.20
2018-08-18T14:26:41.922Z,55.40
2018-08-18T14:31:36.289Z,56.00
2018-08-18T14:36:30.258Z,55.70
2018-08-18T14:41:39.884Z,55.20
2018-08-18T14:46:35.049Z,55.40
2018-08-18T14:51:29.449Z,56.60
2018-08-18T14:56:23.653Z,56.80
2018-08-18T15:01:17.758Z,57.20
2018-08-18T15:06:12.875Z,57.20
2018-08-18T15:11:07.059Z,57.00
2018-08-18T15:16:02.433Z,58.20
2018-08-18T15:21:04.262Z,57.50
2018-08-18T15:25:58.796Z,57.50
2018-08-18T15:30:54.453Z,57.70
2018-08-18T15:35:48.869Z,57.90
2018-08-18T15:40:43.088Z,57.40
2018-08-18T15:46:04.713Z,58.10
2018-08-18T15:50:58.471Z,58.00
2018-08-18T15:55:53.912Z,57.50
2018-08-18T16:00:50.040Z,57.10
2018-08-18T16:05:44.189Z,58.10
2018-08-18T16:10:39.308Z,59.20
2018-08-18T16:15:33.809Z,59.20
2018-08-18T16:20:27.860Z,59.60
2018-08-18T16:25:40.719Z,59.80
2018-08-18T16:30:36.319Z,60.50
2018-08-18T16:35:30.228Z,60.70
2018-08-18T16:40:24.719Z,60.30
2018-08-18T16:45:18.902Z,61.10
2018-08-18T16:50:13.283Z,62.70
2018-08-18T16:55:07.804Z,62.70
2018-08-18T17:00:03.442Z,62.80
2018-08-18T17:04:57.882Z,63.60
2018-08-18T17:09:53.398Z,64.70
2018-08-18T17:14:48.493Z,65.20
2018-08-18T17:19:43.978Z,65.70
2018-08-18T17:24:37.965Z,65.80
2018-08-18T17:29:35.820Z,66.40
2018-08-18T17:34:44.559Z,67.70
2018-08-18T17:39:38.966Z,68.50
2018-08-18T17:44:34.084Z,69.70
2018-08-18T17:49:29.280Z,70.10
2018-08-18T17:54:24.586Z,70.10
2018-08-18T17:59:20.385Z,69.70
2018-08-18T18:04:14.893Z,71.80
2018-08-18T18:09:09.919Z,70.40
2018-08-18T18:14:05.091Z,71.00
2018-08-18T18:19:00.372Z,73.60
2018-08-18T18:23:54.697Z,73.30
2018-08-18T18:28:48.798Z,76.30
2018-08-18T18:33:54.573Z,76.80
2018-08-18T18:39:03.016Z,76.30
2018-08-18T18:44:21.603Z,77.90
2018-08-18T18:49:28.383Z,78.30
2018-08-18T18:54:22.878Z,79.50
2018-08-18T18:59:17.060Z,80.40
2018-08-18T19:04:11.239Z,82.40
2018-08-18T19:09:07.372Z,83.20
2018-08-18T19:14:01.792Z,84.00
2018-08-18T19:18:57.122Z,84.60
2018-08-18T19:23:51.299Z,85.10
2018-08-18T19:28:45.176Z,84.60
2018-08-18T19:33:39.676Z,85.90
2018-08-18T19:38:34.207Z,88.80
2018-08-18T19:43:28.612Z,90.10
2018-08-18T19:48:23.769Z,90.40
2018-08-18T19:53:18.986Z,90.70
2018-08-18T19:58:13.580Z,91.30
2018-08-18T20:03:10.393Z,91.50
2018-08-18T20:08:05.121Z,91.70
2018-08-18T20:13:00.387Z,92.10
2018-08-18T20:17:55.174Z,92.30
2018-08-18T20:22:49.456Z,92.70
2018-08-18T20:27:43.763Z,92.50
2018-08-18T20:32:37.697Z,92.30
2018-08-18T20:37:32.671Z,92.90
2018-08-18T20:42:31.918Z,93.40
2018-08-18T20:47:30.153Z,93.60
2018-08-18T20:52:25.037Z,93.70
2018-08-18T20:57:19.875Z,93.90
2018-08-18T21:02:15.023Z,94.20
2018-08-18T21:07:09.392Z,94.50
2018-08-18T21:12:05.491Z,94.50
2018-08-18T21:16:59.733Z,94.80
2018-08-18T21:21:54.481Z,95.00
2018-08-18T21:26:52.485Z,94.80
2018-08-18T21:31:55.100Z,95.10
2018-08-18T21:36:53.646Z,94.80
2018-08-18T21:41:50.919Z,95.50
2018-08-18T21:46:53.906Z,95.90
2018-08-18T21:51:52.656Z,96.10
2018-08-18T21:56:48.966Z,96.10
2018-08-18T22:01:45.641Z,96.40
2018-08-18T22:06:42.095Z,97.00
2018-08-18T22:11:42.545Z,96.60
2018-08-18T22:16:44.108Z,97.10
2018-08-18T22:21:38.248Z,97.00
2018-08-18T22:26:34.644Z,97.00
2018-08-18T22:31:30.236Z,97.20
2018-08-18T22:36:25.664Z,97.40
2018-08-18T22:41:19.617Z,97.60
2018-08-18T22:46:15.349Z,97.60
2018-08-18T22:51:09.877Z,97.40
2018-08-18T22:56:05.752Z,97.80
2018-08-18T23:00:59.477Z,98.00
2018-08-18T23:06:01.830Z,98.00
2018-08-18T23:10:56.335Z,98.40
2018-08-18T23:15:50.369Z,98.50
2018-08-18T23:20:44.735Z,98.70
2018-08-18T23:25:38.880Z,98.90
2018-08-18T23:30:37.660Z,98.90
2018-08-18T23:35:32.973Z,99.10
2018-08-18T23:40:27.582Z,99.10
2018-08-18T23:45:21.808Z,99.20
2018-08-18T23:50:15.762Z,99.10
2018-08-18T23:55:09.798Z,99.40
